createdAt,value
2023-04-14T00:04:54.581Z,98598.38
2023-04-14T00:10:56.510Z,98597.38
2023-04-14T00:16:58.432Z,98584.63
2023-04-14T00:23:00.454Z,98598.03
2023-04-14T00:29:02.769Z,98595.44
2023-04-14T00:35:05.347Z,98597.81
2023-04-14T00:41:07.245Z,98590.69
2023-04-14T00:47:09.358Z,98603.41
2023-04-14T00:53:13.001Z,98601.44
2023-04-14T00:59:17.408Z,98594.31
2023-04-14T01:05:19.498Z,98591.16
2023-04-14T01:11:24.282Z,98589.91
2023-04-14T01:17:43.769Z,98599.09
2023-04-14T01:24:25.448Z,98603.81
2023-04-14T01:30:28.311Z,98600.81
2023-04-14T01:36:52.386Z,98612.81
2023-04-14T01:43:02.711Z,98620.50
2023-04-14T01:49:05.273Z,98615.63
2023-04-14T01:55:09.890Z,98619.91
2023-04-14T02:01:12.169Z,98618.53
2023-04-14T02:07:15.319Z,98620.41
2023-04-14T02:13:19.550Z,98618.16
2023-04-14T02:19:22.964Z,98617.13
2023-04-14T02:25:32.228Z,98621.88
2023-04-14T02:31:36.604Z,98616.75
2023-04-14T02:37:43.873Z,98610.88
2023-04-14T02:43:55.479Z,98616.69
2023-04-14T02:50:00.603Z,98618.66
2023-04-14T02:56:03.245Z,98621.50
2023-04-14T03:02:07.159Z,98619.66
2023-04-14T03:08:14.697Z,98623.16
2023-04-14T03:14:19.204Z,98628.47
2023-04-14T03:20:21.966Z,98619.06
2023-04-14T03:26:28.168Z,98614.91
2023-04-14T03:32:41.447Z,98610.69
2023-04-14T03:38:45.837Z,98604.97
2023-04-14T03:44:53.223Z,98613.53
2023-04-14T03:50:58.191Z,98610.03
2023-04-14T03:57:04.606Z,98609.16
2023-04-14T04:03:07.055Z,98611.25
2023-04-14T04:09:14.531Z,98617.56
2023-04-14T04:15:16.569Z,98611.94
2023-04-14T04:21:19.326Z,98614.03
2023-04-14T04:27:28.167Z,98623.25
2023-04-14T04:33:31.410Z,98635.69
2023-04-14T04:39:33.378Z,98633.53
2023-04-14T04:46:19.290Z,98635.53
2023-04-14T04:52:21.278Z,98636.00
2023-04-14T04:58:23.176Z,98645.00
2023-04-14T05:04:25.237Z,98636.59
2023-04-14T05:10:27.159Z,98626.56
2023-04-14T05:16:29.909Z,98636.75
2023-04-14T05:22:34.887Z,98643.38
2023-04-14T05:28:36.992Z,98649.66
2023-04-14T05:34:38.912Z,98649.72
2023-04-14T05:40:41.796Z,98655.59
2023-04-14T05:46:43.795Z,98652.03
2023-04-14T05:52:46.120Z,98649.69
2023-04-14T05:58:48.153Z,98657.63
2023-04-14T06:04:50.276Z,98651.97
2023-04-14T06:10:52.270Z,98657.16
2023-04-14T06:16:55.242Z,98655.09
2023-04-14T06:22:57.194Z,98658.28
2023-04-14T06:29:00.802Z,98656.13
2023-04-14T06:35:05.074Z,98646.91
2023-04-14T06:41:07.130Z,98644.72
2023-04-14T06:47:09.452Z,98640.22
2023-04-14T06:53:11.338Z,98641.75
2023-04-14T06:59:13.374Z,98646.72
2023-04-14T07:05:15.322Z,98649.00
2023-04-14T07:11:17.238Z,98641.19
2023-04-14T07:17:20.135Z,98639.31
2023-04-14T07:23:22.735Z,98640.91
2023-04-14T07:29:24.785Z,98645.25
2023-04-14T07:35:26.810Z,98655.69
2023-04-14T07:41:28.869Z,98648.56
2023-04-14T07:47:30.959Z,98642.78
2023-04-14T07:53:33.610Z,98646.09
2023-04-14T07:59:35.553Z,98643.16
2023-04-14T08:05:37.843Z,98652.59
2023-04-14T08:11:39.888Z,98643.56
2023-04-14T08:17:41.931Z,98658.38
2023-04-14T08:23:44.143Z,98647.03
2023-04-14T08:29:46.228Z,98655.34
2023-04-14T08:35:56.152Z,98644.22
2023-04-14T08:42:02.361Z,98653.78
2023-04-14T08:48:05.720Z,98657.13
2023-04-14T08:54:11.095Z,98659.28
2023-04-14T09:00:14.467Z,98657.28
2023-04-14T09:06:18.057Z,98652.78
2023-04-14T09:12:21.997Z,98652.72
2023-04-14T09:18:26.075Z,98644.00
2023-04-14T09:24:34.033Z,98634.28
2023-04-14T09:30:36.277Z,98629.22
2023-04-14T09:36:38.573Z,98636.50
2023-04-14T09:42:42.785Z,98630.47
2023-04-14T09:48:56.174Z,98626.41
2023-04-14T09:54:58.821Z,98632.84
2023-04-14T10:01:05.654Z,98630.97
2023-04-14T10:07:08.148Z,98618.06
2023-04-14T10:13:15.010Z,98622.03
2023-04-14T10:19:16.933Z,98617.78
2023-04-14T10:25:19.279Z,98612.03
2023-04-14T10:31:40.451Z,98603.50
2023-04-14T10:37:55.057Z,98592.41
2023-04-14T10:43:56.975Z,98585.44
2023-04-14T10:50:04.157Z,98581.28
2023-04-14T10:56:07.150Z,98583.25
2023-04-14T11:02:31.937Z,98585.66
2023-04-14T11:08:37.070Z,98575.72
2023-04-14T11:14:39.059Z,98582.50
2023-04-14T11:20:44.082Z,98578.28
2023-04-14T11:26:46.036Z,98576.13
2023-04-14T11:32:54.421Z,98575.19
2023-04-14T11:38:56.454Z,98573.03
2023-04-14T11:44:58.884Z,98563.44
2023-04-14T11:51:03.773Z,98564.28
2023-04-14T11:57:14.702Z,98558.53
2023-04-14T12:03:17.245Z,98543.03
2023-04-14T12:09:19.456Z,98539.03
2023-04-14T12:15:21.456Z,98533.03
2023-04-14T12:21:23.403Z,98520.09
2023-04-14T12:27:27.449Z,98500.59
2023-04-14T12:33:31.148Z,98507.25
2023-04-14T12:39:47.926Z,98493.00
2023-04-14T12:45:51.136Z,98494.88
2023-04-14T12:51:53.018Z,98504.78
2023-04-14T12:57:56.035Z,98482.09
2023-04-14T13:03:58.116Z,98480.16
2023-04-14T13:10:01.286Z,98482.44
2023-04-14T13:16:14.469Z,98483.53
2023-04-14T13:22:18.173Z,98477.06
2023-04-14T13:28:20.545Z,98471.09
2023-04-14T13:34:22.462Z,98469.25
2023-04-14T13:40:24.432Z,98465.41
2023-04-14T13:46:26.401Z,98463.84
2023-04-14T13:52:28.299Z,98457.16
2023-04-14T13:58:30.214Z,98452.00
2023-04-14T14:04:37.005Z,98459.78
2023-04-14T14:10:39.009Z,98449.03
2023-04-14T14:16:40.960Z,98452.63
2023-04-14T14:22:42.914Z,98462.22
2023-04-14T14:28:45.816Z,98461.72
2023-04-14T14:34:47.961Z,98439.13
2023-04-14T14:40:49.825Z,98436.69
2023-04-14T14:46:52.789Z,98442.41
2023-04-14T14:52:56.860Z,98427.31
2023-04-14T14:58:58.828Z,98422.28
2023-04-14T15:05:01.138Z,98428.03
2023-04-14T15:11:03.040Z,98424.94
2023-04-14T15:17:05.033Z,98419.69
2023-04-14T15:23:07.215Z,98418.44
2023-04-14T15:29:09.133Z,98413.03
2023-04-14T15:35:11.291Z,98417.53
2023-04-14T15:41:13.191Z,98413.78
2023-04-14T15:47:15.060Z,98417.13
2023-04-14T15:53:16.969Z,98410.06
2023-04-14T15:59:21.633Z,98409.53
2023-04-14T16:05:23.624Z,98403.97
2023-04-14T16:11:25.642Z,98409.09
2023-04-14T16:17:27.978Z,98408.88
2023-04-14T16:23:29.935Z,98419.19
2023-04-14T16:29:31.872Z,98423.28
2023-04-14T16:35:34.816Z,98436.94
2023-04-14T16:41:36.691Z,98443.88
2023-04-14T16:47:38.637Z,98440.75
2023-04-14T16:53:40.752Z,98436.56
2023-04-14T16:59:42.928Z,98437.69
2023-04-14T17:05:44.878Z,98437.19
2023-04-14T17:11:46.757Z,98438.88
2023-04-14T17:17:49.294Z,98435.81
2023-04-14T17:23:51.750Z,98427.59
2023-04-14T17:29:53.642Z,98433.53
2023-04-14T17:35:55.798Z,98439.09
2023-04-14T17:41:58.409Z,98447.72
2023-04-14T17:48:00.478Z,98456.97
2023-04-14T17:54:05.370Z,98472.00
2023-04-14T18:00:09.823Z,98468.44
2023-04-14T18:06:11.762Z,98471.34
2023-04-14T18:12:13.806Z,98481.06
2023-04-14T18:18:15.693Z,98488.72
2023-04-14T18:30:22.648Z,98486.38
2023-04-14T18:36:24.731Z,98492.41
2023-04-14T18:42:27.334Z,98498.53
2023-04-14T18:48:29.293Z,98494.53
2023-04-14T18:54:31.917Z,98518.44
2023-04-14T19:00:34.114Z,98524.88
2023-04-14T19:06:36.569Z,98533.53
2023-04-14T19:12:40.430Z,98529.88
2023-04-14T19:18:42.379Z,98537.28
2023-04-14T19:24:44.454Z,98530.06
2023-04-14T19:30:46.382Z,98528.09
2023-04-14T19:36:49.479Z,98522.00
2023-04-14T19:42:54.984Z,98519.72
2023-04-14T19:48:57.052Z,98523.31
2023-04-14T19:54:59.031Z,98519.34
2023-04-14T20:01:01.074Z,98509.94
2023-04-14T20:07:03.402Z,98512.13
2023-04-14T20:13:05.328Z,98506.34
2023-04-14T20:19:07.262Z,98512.78
2023-04-14T20:25:09.567Z,98502.81
2023-04-14T20:31:11.751Z,98496.78
2023-04-14T20:37:13.657Z,98489.63
2023-04-14T20:43:15.779Z,98480.56
2023-04-14T20:49:17.699Z,98477.72
2023-04-14T20:55:20.826Z,98485.72
2023-04-14T21:01:25.456Z,98497.03
2023-04-14T21:07:29.121Z,98499.28
2023-04-14T21:15:30.244Z,98499.88
2023-04-14T21:19:53.910Z,98499.44
2023-04-14T21:25:56.102Z,98502.88
2023-04-14T21:31:58.242Z,98498.53
2023-04-14T21:38:00.308Z,98503.25
2023-04-14T21:44:02.701Z,98507.47
2023-04-14T21:50:05.472Z,98503.34
2023-04-14T21:56:10.766Z,98507.56
2023-04-14T22:02:13.770Z,98505.72
2023-04-14T22:08:16.177Z,98498.22
2023-04-14T22:14:18.043Z,98499.84
2023-04-14T22:20:19.960Z,98504.28
2023-04-14T22:26:21.858Z,98513.59
2023-04-14T22:32:23.786Z,98507.53
2023-04-14T22:38:25.933Z,98506.25
2023-04-14T22:44:27.817Z,98505.59
2023-04-14T22:50:30.924Z,98503.34
2023-04-14T22:56:32.966Z,98498.28
2023-04-14T23:02:36.108Z,98494.97
2023-04-14T23:08:38.199Z,98493.44
2023-04-14T23:14:40.104Z,98489.13
2023-04-14T23:20:41.978Z,98491.38
2023-04-14T23:26:44.332Z,98489.38
2023-04-14T23:32:46.379Z,98491.72
2023-04-14T23:38:48.501Z,98481.38
2023-04-14T23:44:50.643Z,98477.03
2023-04-14T23:51:00.375Z,98468.53
2023-04-14T23:57:13.068Z,98459.81
